MAPA DE AEROPUERTO

INFORMACIÓN METAR y TAF

METAR FOR LEZG
ADDS - METARS form results

(1848 UTC 27 January 2021)
Data provider http://aviationweather.gov/metar/data/
 
METAR text: LEZG 271830Z 28012KT CAVOK 15/12 Q1023
Conditions at: LEZG (ZARAGOZA (MIL/CI, ES) observed 1830 UTC 27 January 2021
Temperature: 15.0°C (59°F)
Dewpoint: 12.0°C (54°F) [RH = 82%]
Pressure (altimeter): 30.21 inches Hg (1023.0 mb)
Winds: from the W (280 degrees) at 14 MPH (12 knots; 6.2 m/s)
Visibility: 6 or more miles (10+ km)
Ceiling: ceiling and visibility are OK
Clouds: unknown
Weather: no significant weather observed at this time

METAR text: LEZG 271800Z 27011KT 9999 FEW040 15/12 Q1023
Conditions at: LEZG (ZARAGOZA (MIL/CI, ES) observed 1800 UTC 27 January 2021
Temperature: 15.0°C (59°F)
Dewpoint: 12.0°C (54°F) [RH = 82%]
Pressure (altimeter): 30.21 inches Hg (1023.0 mb)
Winds: from the W (270 degrees) at 13 MPH (11 knots; 5.7 m/s)
Visibility: 6 or more miles (10+ km)
Ceiling: at least 12,000 feet AGL
Clouds: few clouds at 4000 feet AGL
Weather: no significant weather observed at this time

Forecast for: LEZG (ZARAGOZA (MIL/CI, ES)
Text: TAF LEZG 271700Z 2718/2818 31010KT 9999 FEW040 TX21/2813Z TN10/2806Z
Forecast period: 1800 to 2000 UTC 27 January 2021
Forecast type: FROM: standard forecast or significant change
Winds: from the NW (310 degrees) at 12 MPH (10 knots; 5.1 m/s)
Visibility: 6 or more miles (10+ km)
Ceiling: at least 12,000 feet AGL
Clouds: few clouds at 4000 feet AGL
Weather: no significant weather forecast for this period
Text: BECMG 2720/2722 25009KT
Forecast period: 2000 UTC 27 January 2021 to 0900 UTC 28 January 2021
Forecast type: BECOMING: Conditions expected to become as follows by 2200 UTC 27 January 2021
Winds: from the WSW (250 degrees) at 10 MPH (9 knots; 4.6 m/s)
Visibility: 6 or more miles (10+ km)
Ceiling: at least 12,000 feet AGL
Clouds: few clouds at 4000 feet AGL
Weather: no significant weather forecast for this period
Text: TEMPO 2800/2812 3000 BR BKN005
Forecast period: 0000 to 1200 UTC 28 January 2021
Forecast type: TEMPORARY: The following changes expected for less than half the time period
Visibility: 1.86 miles (2.99 km)
Ceiling: 500 feet AGL
Clouds: broken clouds at 500 feet AGL
Weather: BR  (mist)
Text: PROB40
Forecast period: 0200 to 1100 UTC 28 January 2021
Forecast type: TEMPORARY: The following changes expected for less than half the time period
Visibility: 0.37 miles (0.60 km)
Ceiling: indefinite ceiling with vertical visibility of 100 feet AGL
Clouds: obscured sky
Weather: FG  (fog)
Text: TEMPO 2802/2811 0600 FG VV001
Forecast period: 0900 to 1800 UTC 28 January 2021
Forecast type: BECOMING: Conditions expected to become as follows by 1100 UTC 28 January 2021
Winds: from the NW (320 degrees) at 12 MPH (10 knots; 5.1 m/s)
Visibility: 6 or more miles (10+ km)
Ceiling: at least 12,000 feet AGL
Clouds: few clouds at 4000 feet AGL
Weather: no significant weather forecast for this period